createdAt,value
2019-04-26T00:02:35.755Z,18.20
2019-04-26T00:05:03.852Z,18.20
2019-04-26T00:07:31.653Z,18.20
2019-04-26T00:10:01.176Z,18.20
2019-04-26T00:12:30.719Z,18.20
2019-04-26T00:15:06.599Z,18.20
2019-04-26T00:17:42.380Z,18.20
2019-04-26T00:20:11.538Z,18.20
2019-04-26T00:22:40.015Z,18.20
2019-04-26T00:25:07.800Z,18.20
2019-04-26T00:27:35.606Z,18.20
2019-04-26T00:30:04.113Z,18.20
2019-04-26T00:32:31.906Z,18.20
2019-04-26T00:34:59.706Z,18.20
2019-04-26T00:37:27.622Z,18.20
2019-04-26T00:39:57.151Z,18.20
2019-04-26T00:42:27.975Z,18.10
2019-04-26T00:44:59.126Z,18.20
2019-04-26T00:47:27.138Z,18.10
2019-04-26T00:49:55.034Z,18.10
2019-04-26T00:52:24.957Z,18.20
2019-04-26T00:54:52.861Z,18.10
2019-04-26T00:57:20.753Z,18.10
2019-04-26T00:59:48.660Z,18.10
2019-04-26T01:02:20.850Z,18.10
2019-04-26T01:04:48.848Z,18.10
2019-04-26T01:07:16.979Z,18.10
2019-04-26T01:09:44.854Z,18.10
2019-04-26T01:12:12.662Z,18.10
2019-04-26T01:14:40.964Z,18.10
2019-04-26T01:17:08.755Z,18.10
2019-04-26T01:19:36.560Z,18.10
2019-04-26T01:22:05.897Z,18.00
2019-04-26T01:24:34.710Z,18.10
2019-04-26T01:27:03.234Z,18.00
2019-04-26T01:29:31.129Z,18.10
2019-04-26T01:32:09.891Z,18.00
2019-04-26T01:34:38.420Z,18.10
2019-04-26T01:37:06.231Z,18.00
2019-04-26T01:39:35.581Z,18.00
2019-04-26T01:42:20.982Z,18.10
2019-04-26T01:44:56.988Z,18.00
2019-04-26T01:47:26.741Z,18.00
2019-04-26T01:49:54.746Z,18.10
2019-04-26T01:52:23.996Z,18.00
2019-04-26T01:54:52.065Z,18.00
2019-04-26T01:57:20.962Z,18.00
2019-04-26T01:59:51.869Z,18.10
2019-04-26T02:02:27.813Z,18.10
2019-04-26T02:05:06.214Z,18.00
2019-04-26T02:07:40.660Z,18.00
2019-04-26T02:10:12.551Z,18.00
2019-04-26T02:12:40.391Z,18.00
2019-04-26T02:15:08.138Z,18.00
2019-04-26T02:17:36.352Z,18.00
2019-04-26T02:20:05.478Z,18.00
2019-04-26T02:22:44.326Z,18.00
2019-04-26T02:25:12.435Z,18.00
2019-04-26T02:27:40.335Z,18.00
2019-04-26T02:30:09.159Z,18.00
2019-04-26T02:32:37.217Z,18.00
2019-04-26T02:35:05.899Z,18.00
2019-04-26T02:37:34.567Z,18.00
2019-04-26T02:40:03.542Z,18.00
2019-04-26T02:42:34.985Z,18.00
2019-04-26T02:45:22.987Z,18.00
2019-04-26T02:47:58.660Z,18.00
2019-04-26T02:50:35.366Z,17.90
2019-04-26T02:53:17.803Z,17.90
2019-04-26T02:56:03.945Z,17.90
2019-04-26T02:58:35.493Z,17.90
2019-04-26T03:01:02.822Z,17.90
2019-04-26T03:03:31.693Z,17.90
2019-04-26T03:06:00.298Z,17.90
2019-04-26T03:08:28.146Z,18.00
2019-04-26T03:11:00.764Z,18.00
2019-04-26T03:13:35.034Z,18.00
2019-04-26T03:16:20.817Z,18.00
2019-04-26T03:18:51.073Z,18.00
2019-04-26T03:21:20.723Z,17.90
2019-04-26T03:23:58.574Z,17.90
2019-04-26T03:26:26.583Z,17.90
2019-04-26T03:29:13.332Z,17.90
2019-04-26T03:31:52.432Z,17.90
2019-04-26T03:34:21.911Z,17.90
2019-04-26T03:37:21.089Z,17.90
2019-04-26T03:39:48.652Z,17.90
2019-04-26T03:42:36.515Z,17.90
2019-04-26T03:45:15.063Z,17.90
2019-04-26T03:48:01.393Z,17.90
2019-04-26T03:50:40.968Z,17.90
2019-04-26T03:53:12.760Z,17.90
2019-04-26T03:55:45.193Z,17.80
2019-04-26T03:58:25.556Z,17.90
2019-04-26T04:01:13.321Z,17.80
2019-04-26T04:03:51.472Z,17.90
2019-04-26T04:06:21.531Z,17.90
2019-04-26T04:08:51.357Z,18.00
2019-04-26T04:11:24.979Z,18.00
2019-04-26T04:13:57.577Z,18.10
2019-04-26T04:16:30.661Z,18.10
2019-04-26T04:19:00.203Z,18.20
2019-04-26T04:21:48.360Z,18.20
2019-04-26T04:24:18.004Z,18.20
2019-04-26T04:26:48.408Z,18.30
2019-04-26T04:29:42.981Z,18.30
2019-04-26T04:32:06.273Z,18.30
2019-04-26T04:34:46.017Z,18.30
2019-04-26T04:37:15.170Z,18.30
2019-04-26T04:39:48.539Z,18.30
2019-04-26T04:42:23.253Z,18.30
2019-04-26T04:45:09.281Z,18.30
2019-04-26T04:47:51.878Z,18.30
2019-04-26T04:50:25.554Z,18.30
2019-04-26T04:53:07.255Z,18.20
2019-04-26T04:55:46.306Z,18.20
2019-04-26T04:58:15.886Z,18.20
2019-04-26T05:00:53.457Z,18.20
2019-04-26T05:03:44.079Z,18.30
2019-04-26T05:06:35.602Z,18.30
2019-04-26T05:09:06.582Z,18.30
2019-04-26T05:11:57.118Z,18.30
2019-04-26T05:14:44.817Z,18.30
2019-04-26T05:17:30.432Z,18.30
2019-04-26T05:20:17.002Z,18.40
2019-04-26T05:22:55.502Z,18.40
2019-04-26T05:25:40.316Z,18.60
2019-04-26T05:28:23.306Z,18.60
2019-04-26T05:31:07.011Z,18.70
2019-04-26T05:33:36.690Z,18.70
2019-04-26T05:36:08.115Z,18.70
2019-04-26T05:38:40.777Z,18.70
2019-04-26T05:41:21.963Z,18.70
2019-04-26T05:44:10.678Z,18.70
2019-04-26T05:46:51.629Z,18.70
2019-04-26T05:49:25.804Z,18.70
2019-04-26T05:52:02.525Z,18.70
2019-04-26T05:54:45.627Z,18.70
2019-04-26T05:57:22.669Z,18.60
2019-04-26T05:59:53.464Z,18.60
2019-04-26T06:02:41.477Z,18.60
2019-04-26T06:05:33.395Z,18.60
2019-04-26T06:08:43.926Z,18.50
2019-04-26T06:11:40.763Z,18.50
2019-04-26T06:14:41.322Z,18.50
2019-04-26T06:17:27.376Z,18.50
2019-04-26T06:19:59.455Z,18.50
2019-04-26T06:22:29.078Z,18.50
2019-04-26T06:25:00.446Z,18.50
2019-04-26T06:27:46.377Z,18.60
2019-04-26T06:30:16.992Z,18.60
2019-04-26T06:33:00.354Z,18.60
2019-04-26T06:35:22.591Z,18.60
2019-04-26T06:37:59.789Z,18.60
2019-04-26T06:40:46.432Z,18.70
2019-04-26T06:43:17.602Z,18.70
2019-04-26T06:46:04.634Z,18.70
2019-04-26T06:48:52.163Z,18.70
2019-04-26T06:51:24.556Z,18.70
2019-04-26T06:53:58.832Z,18.80
2019-04-26T06:56:51.047Z,18.80
2019-04-26T06:59:36.238Z,18.80
2019-04-26T07:01:59.234Z,18.80
2019-04-26T07:04:45.583Z,18.70
2019-04-26T07:07:20.782Z,18.70
2019-04-26T07:09:50.570Z,18.70
2019-04-26T07:12:25.473Z,18.70
2019-04-26T07:15:03.890Z,18.80
2019-04-26T07:17:45.736Z,18.80
2019-04-26T07:20:21.341Z,18.90
2019-04-26T07:22:59.366Z,18.80
2019-04-26T07:25:40.306Z,18.80
2019-04-26T07:28:12.729Z,18.80
2019-04-26T07:30:42.664Z,18.80
2019-04-26T07:33:30.465Z,18.80
2019-04-26T07:36:09.802Z,18.70
2019-04-26T07:38:52.649Z,18.70
2019-04-26T07:41:40.314Z,18.70
2019-04-26T07:44:29.278Z,18.70
2019-04-26T07:47:08.547Z,18.70
2019-04-26T07:49:56.698Z,18.60
2019-04-26T07:52:32.168Z,18.60
2019-04-26T07:55:18.717Z,18.60
2019-04-26T07:57:49.266Z,18.60
2019-04-26T08:00:44.643Z,18.60
2019-04-26T08:03:28.071Z,18.50
2019-04-26T08:06:00.488Z,18.50
2019-04-26T08:08:34.815Z,18.40
2019-04-26T08:11:06.223Z,18.40
2019-04-26T08:13:34.569Z,18.50
2019-04-26T08:16:22.793Z,18.50
2019-04-26T08:18:54.232Z,18.50
2019-04-26T08:21:31.720Z,18.50
2019-04-26T08:23:59.868Z,18.50
2019-04-26T08:26:28.001Z,18.50
2019-04-26T08:29:00.704Z,18.50
2019-04-26T08:31:28.310Z,18.50
2019-04-26T08:33:57.925Z,18.50
2019-04-26T08:36:29.616Z,18.50
2019-04-26T08:38:58.377Z,18.50
2019-04-26T08:41:26.536Z,18.50
2019-04-26T08:44:11.727Z,18.50
2019-04-26T08:46:56.901Z,18.50
2019-04-26T08:49:31.192Z,18.50
2019-04-26T08:51:58.989Z,18.50
2019-04-26T08:54:28.672Z,18.40
2019-04-26T08:57:00.609Z,18.50
2019-04-26T08:59:30.037Z,18.50
2019-04-26T09:01:59.480Z,18.50
2019-04-26T09:04:37.799Z,18.50
2019-04-26T09:07:07.337Z,18.60
2019-04-26T09:09:35.745Z,18.50
2019-04-26T09:12:08.338Z,18.50
2019-04-26T09:14:35.437Z,18.60
2019-04-26T09:17:03.228Z,18.60
2019-04-26T09:19:32.204Z,18.70
2019-04-26T09:22:12.502Z,18.70
2019-04-26T09:24:32.842Z,18.70
2019-04-26T09:27:05.038Z,18.70
2019-04-26T09:29:34.579Z,18.80
2019-04-26T09:32:12.807Z,18.80
2019-04-26T09:34:42.658Z,18.80
2019-04-26T09:37:10.881Z,18.80
2019-04-26T09:39:41.736Z,18.80
2019-04-26T09:42:26.029Z,18.80
2019-04-26T09:45:11.995Z,18.80
2019-04-26T09:47:44.630Z,18.80
2019-04-26T09:50:17.299Z,18.80
2019-04-26T09:52:46.849Z,18.80
2019-04-26T09:55:14.768Z,18.70
2019-04-26T09:57:42.574Z,18.70
2019-04-26T10:00:14.244Z,18.80
2019-04-26T10:02:40.306Z,18.70
2019-04-26T10:05:11.583Z,18.70
2019-04-26T10:07:38.888Z,18.80
2019-04-26T10:10:07.684Z,18.80
2019-04-26T10:12:37.212Z,18.80
2019-04-26T10:15:16.792Z,18.80
2019-04-26T10:17:46.429Z,18.80
2019-04-26T10:20:14.010Z,18.80
2019-04-26T10:22:42.135Z,18.80
2019-04-26T10:25:16.328Z,18.80
2019-04-26T10:27:40.757Z,18.80
2019-04-26T10:30:11.061Z,18.80
2019-04-26T10:32:38.823Z,18.90
2019-04-26T10:35:06.735Z,18.80
2019-04-26T10:37:39.700Z,18.80
2019-04-26T10:40:05.707Z,18.80
2019-04-26T10:42:33.481Z,18.80
2019-04-26T10:45:01.390Z,18.80
2019-04-26T10:47:29.201Z,18.80
2019-04-26T10:49:58.214Z,18.90
2019-04-26T10:52:53.311Z,18.80
2019-04-26T10:55:25.564Z,18.80
2019-04-26T10:57:54.905Z,18.80
2019-04-26T11:00:27.011Z,18.80
2019-04-26T11:03:00.045Z,18.80
2019-04-26T11:05:26.299Z,18.80
2019-04-26T11:07:56.465Z,18.80
2019-04-26T11:10:27.142Z,18.70
2019-04-26T11:12:56.868Z,18.70
2019-04-26T11:15:24.985Z,18.80
2019-04-26T11:17:53.486Z,18.70
2019-04-26T11:20:21.384Z,18.70
2019-04-26T11:22:49.491Z,18.70
2019-04-26T12:09:18.801Z,18.60
2019-04-26T12:11:50.966Z,18.60
2019-04-26T12:14:20.453Z,18.60
2019-04-26T12:16:49.256Z,18.60
2019-04-26T12:19:18.352Z,18.60
2019-04-26T12:21:44.517Z,18.60
2019-04-26T12:24:12.402Z,18.60
2019-04-26T12:26:43.111Z,18.70
2019-04-26T12:29:10.498Z,18.60
2019-04-26T12:31:39.343Z,18.60
2019-04-26T12:34:07.114Z,18.60
2019-04-26T12:36:34.909Z,18.60
2019-04-26T12:39:03.308Z,18.60
2019-04-26T12:41:40.492Z,18.60
2019-04-26T12:44:03.322Z,18.60
2019-04-26T12:46:32.095Z,18.60
2019-04-26T12:49:00.054Z,18.60
2019-04-26T12:51:27.944Z,18.60
2019-04-26T12:53:58.812Z,18.60
2019-04-26T12:56:31.104Z,18.60
2019-04-26T12:58:56.336Z,18.60
2019-04-26T13:01:26.537Z,18.60
2019-04-26T13:04:03.965Z,18.60
2019-04-26T13:06:33.484Z,18.60
2019-04-26T13:09:01.334Z,18.60
2019-04-26T13:11:33.929Z,18.60
2019-04-26T13:14:06.643Z,18.70
2019-04-26T13:16:38.945Z,18.90
2019-04-26T13:19:06.918Z,19.00
2019-04-26T13:21:37.266Z,19.10
2019-04-26T13:24:05.862Z,19.20
2019-04-26T13:26:34.802Z,19.20
2019-04-26T13:29:03.419Z,19.30
2019-04-26T13:31:31.964Z,19.40
2019-04-26T13:34:03.014Z,19.40
2019-04-26T13:36:30.632Z,19.40
2019-04-26T13:38:58.510Z,19.40
2019-04-26T13:41:27.986Z,19.40
2019-04-26T13:43:57.139Z,19.40
2019-04-26T13:46:43.623Z,19.40
2019-04-26T13:49:14.335Z,19.40
2019-04-26T13:51:44.229Z,19.30
2019-04-26T13:54:12.229Z,19.30
2019-04-26T13:56:40.121Z,19.30
2019-04-26T13:59:08.117Z,19.30
2019-04-26T14:01:36.419Z,19.30
2019-04-26T14:04:06.954Z,19.30
2019-04-26T14:06:33.844Z,19.30
2019-04-26T14:09:03.004Z,19.30
2019-04-26T14:11:31.232Z,19.30
2019-04-26T14:14:00.087Z,19.30
2019-04-26T14:16:28.600Z,19.30
2019-04-26T14:18:56.492Z,19.30
2019-04-26T14:21:29.177Z,19.30
2019-04-26T14:24:10.742Z,19.20
2019-04-26T14:26:41.486Z,19.20
2019-04-26T14:29:09.386Z,19.20
2019-04-26T14:31:37.206Z,19.20
2019-04-26T14:34:05.417Z,19.20
2019-04-26T14:36:34.541Z,19.20
2019-04-26T14:39:05.972Z,19.30
2019-04-26T14:41:31.853Z,19.20
2019-04-26T14:43:59.642Z,19.20
2019-04-26T14:46:27.564Z,19.20
2019-04-26T14:49:02.054Z,19.20
2019-04-26T14:51:26.559Z,19.20
2019-04-26T14:53:57.352Z,19.20
2019-04-26T14:56:29.239Z,19.20
2019-04-26T14:59:01.218Z,19.20
2019-04-26T15:01:37.635Z,19.20
2019-04-26T15:04:23.347Z,19.10
2019-04-26T15:06:57.970Z,19.10
2019-04-26T15:09:29.716Z,19.10
2019-04-26T15:11:57.808Z,19.10
2019-04-26T15:14:22.699Z,19.10
2019-04-26T15:16:50.529Z,19.10
2019-04-26T15:19:18.728Z,19.20
2019-04-26T15:21:46.724Z,19.20
2019-04-26T15:24:14.718Z,19.20
2019-04-26T15:26:42.623Z,19.20
2019-04-26T15:29:10.392Z,19.20
2019-04-26T15:31:38.230Z,19.10
2019-04-26T15:34:06.225Z,19.10
2019-04-26T15:36:34.078Z,19.10
2019-04-26T15:41:58.079Z,19.10
2019-04-26T15:44:45.868Z,19.10
2019-04-26T15:47:18.046Z,19.10
2019-04-26T15:49:47.485Z,19.10
2019-04-26T15:52:15.339Z,19.10
2019-04-26T15:54:44.169Z,19.10
2019-04-26T15:57:12.404Z,19.10
2019-04-26T15:59:40.417Z,19.10
2019-04-26T16:02:08.413Z,19.10
2019-04-26T16:04:36.313Z,19.10
2019-04-26T16:07:04.221Z,19.10
2019-04-26T16:09:32.633Z,19.10
2019-04-26T16:12:00.708Z,19.10
2019-04-26T16:14:31.319Z,19.10
2019-04-26T16:16:58.263Z,19.10
2019-04-26T16:19:27.854Z,19.10
2019-04-26T16:21:59.052Z,19.10
2019-04-26T16:24:27.986Z,19.10
2019-04-26T16:27:02.721Z,19.10
2019-04-26T16:29:38.512Z,19.10
2019-04-26T16:32:08.041Z,19.10
2019-04-26T16:34:41.682Z,19.00
2019-04-26T16:37:09.995Z,19.00
2019-04-26T16:39:38.824Z,19.00
2019-04-26T16:42:07.644Z,19.00
2019-04-26T16:44:35.844Z,19.00
2019-04-26T16:47:05.903Z,19.00
2019-04-26T16:49:35.113Z,19.00
2019-04-26T16:52:06.799Z,18.90
2019-04-26T17:23:30.018Z,18.80
2019-04-26T17:26:05.650Z,18.80
2019-04-26T17:28:33.650Z,18.80
2019-04-26T17:31:02.142Z,18.80
2019-04-26T17:33:29.940Z,18.80
2019-04-26T17:35:58.116Z,18.80
2019-04-26T17:38:25.880Z,18.80
2019-04-26T17:40:55.568Z,18.90
2019-04-26T17:43:23.079Z,18.90
2019-04-26T17:45:51.649Z,19.00
2019-04-26T17:48:21.145Z,19.10
2019-04-26T17:50:49.230Z,19.20
2019-04-26T17:53:28.145Z,19.20
2019-04-26T17:55:50.981Z,19.30
2019-04-26T17:58:17.813Z,19.40
2019-04-26T18:00:46.524Z,19.40
2019-04-26T18:03:15.054Z,19.40
2019-04-26T18:05:56.780Z,19.40
2019-04-26T18:08:33.768Z,19.40
2019-04-26T18:10:42.916Z,19.40
2019-04-26T18:13:16.132Z,19.40
2019-04-26T18:15:46.898Z,19.40
2019-04-26T18:18:14.343Z,19.40
2019-04-26T18:20:58.892Z,19.40
2019-04-26T18:23:26.788Z,19.40
2019-04-26T18:25:54.593Z,19.30
2019-04-26T18:28:22.771Z,19.20
2019-04-26T18:30:50.770Z,19.30
2019-04-26T18:33:24.176Z,19.30
2019-04-26T18:35:53.156Z,19.30
2019-04-26T18:38:17.634Z,19.30
2019-04-26T18:41:00.183Z,19.20
2019-04-26T18:43:17.654Z,19.20
2019-04-26T18:45:46.542Z,19.20
2019-04-26T18:48:14.327Z,19.20
2019-04-26T18:50:45.687Z,19.10
2019-04-26T18:53:14.002Z,19.10
2019-04-26T18:55:43.083Z,19.10
2019-04-26T18:58:11.123Z,19.10
2019-04-26T19:30:08.855Z,18.90
2019-04-26T19:32:35.408Z,18.90
2019-04-26T19:35:07.536Z,18.90
2019-04-26T19:37:36.728Z,18.90
2019-04-26T19:40:02.866Z,19.00
2019-04-26T19:42:32.457Z,18.90
2019-04-26T19:45:13.380Z,18.90
2019-04-26T19:47:35.380Z,18.90
2019-04-26T19:50:27.453Z,18.90
2019-04-26T19:53:01.576Z,18.90
2019-04-26T19:55:36.687Z,18.90
2019-04-26T19:58:09.656Z,18.90
2019-04-26T20:00:42.546Z,18.90
2019-04-26T20:03:12.446Z,18.90
2019-04-26T20:05:40.595Z,18.90
2019-04-26T20:08:07.352Z,18.90
2019-04-26T20:10:40.476Z,18.90
2019-04-26T20:13:07.539Z,18.90
2019-04-26T20:15:34.639Z,18.90
2019-04-26T20:18:04.031Z,19.00
2019-04-26T20:20:35.268Z,19.00
2019-04-26T20:23:05.789Z,19.00
2019-04-26T20:25:31.109Z,19.00
2019-04-26T20:28:00.009Z,19.00
2019-04-26T20:30:36.141Z,18.90
2019-04-26T20:33:04.445Z,18.90
2019-04-26T20:35:32.338Z,18.90
2019-04-26T20:38:03.283Z,18.90
2019-04-26T20:40:29.678Z,18.90
2019-04-26T20:43:03.259Z,18.90
2019-04-26T20:45:38.857Z,18.90
2019-04-26T20:47:56.973Z,18.90
2019-04-26T20:50:28.660Z,18.90
2019-04-26T20:53:00.900Z,18.90
2019-04-26T20:55:30.389Z,18.90
2019-04-26T20:57:55.513Z,18.90
2019-04-26T21:00:25.183Z,18.80
2019-04-26T21:02:54.184Z,18.80
2019-04-26T21:05:22.893Z,18.80
2019-04-26T21:07:51.089Z,18.80
2019-04-26T21:10:22.109Z,18.80
2019-04-26T21:12:52.244Z,18.80
2019-04-26T21:15:20.377Z,18.80
2019-04-26T21:17:48.398Z,18.80
2019-04-26T21:20:16.300Z,18.80
2019-04-26T21:22:44.622Z,18.80
2019-04-26T21:25:23.154Z,18.80
2019-04-26T21:27:55.778Z,18.80
2019-04-26T21:30:33.572Z,18.80
2019-04-26T21:33:05.617Z,18.70
2019-04-26T21:35:41.138Z,18.70
2019-04-26T21:38:25.541Z,18.70
2019-04-26T21:41:14.057Z,18.70
2019-04-26T21:43:43.694Z,18.70
2019-04-26T21:46:18.686Z,18.70
2019-04-26T21:48:41.917Z,18.70
2019-04-26T21:51:14.515Z,18.70
2019-04-26T21:53:42.190Z,18.70
2019-04-26T21:56:11.537Z,18.70
2019-04-26T21:58:39.115Z,18.70
2019-04-26T22:01:11.127Z,18.70
2019-04-26T22:03:38.193Z,18.70
2019-04-26T22:06:05.989Z,18.70
2019-04-26T22:08:38.071Z,18.60
2019-04-26T22:11:06.273Z,18.60
2019-04-26T22:13:41.575Z,18.60
2019-04-26T22:16:29.304Z,18.60
2019-04-26T22:18:50.578Z,18.50
2019-04-26T22:21:36.892Z,18.50
2019-04-26T22:24:06.415Z,18.50
2019-04-26T22:26:37.935Z,18.50
2019-04-26T22:29:03.846Z,18.50
2019-04-26T22:31:31.740Z,18.40
2019-04-26T22:34:01.483Z,18.50
2019-04-26T22:36:30.791Z,18.50
2019-04-26T22:39:01.858Z,18.40
2019-04-26T22:41:28.530Z,18.50
2019-04-26T22:44:09.702Z,18.50
2019-04-26T22:46:49.556Z,18.50
2019-04-26T22:49:17.317Z,18.50
2019-04-26T22:51:45.312Z,18.50
2019-04-26T22:54:13.106Z,18.50
2019-04-26T22:56:41.098Z,18.50
2019-04-26T22:59:08.894Z,18.40
2019-04-26T23:01:39.293Z,18.40
2019-04-26T23:04:06.938Z,18.40
2019-04-26T23:06:34.731Z,18.40
2019-04-26T23:09:02.515Z,18.40
2019-04-26T23:11:30.507Z,18.40
2019-04-26T23:14:00.037Z,18.40
2019-04-26T23:16:33.613Z,18.40
2019-04-26T23:19:03.741Z,18.40
2019-04-26T23:21:33.937Z,18.40
2019-04-26T23:24:03.799Z,18.40
2019-04-26T23:26:33.466Z,18.30
2019-04-26T23:29:01.444Z,18.40
2019-04-26T23:31:29.159Z,18.40
2019-04-26T23:33:57.126Z,18.30
2019-04-26T23:36:24.919Z,18.30
2019-04-26T23:38:53.203Z,18.30
2019-04-26T23:41:23.434Z,18.30
2019-04-26T23:43:50.635Z,18.30
2019-04-26T23:46:18.747Z,18.30
2019-04-26T23:48:49.539Z,18.30
2019-04-26T23:51:17.727Z,18.30
2019-04-26T23:53:45.651Z,18.30
2019-04-26T23:56:16.225Z,18.30
2019-04-26T23:58:44.202Z,18.30
